Time;durP1;ratioP1;P1;durP2;ratioP2;P2;SDS_P1;SDS_P2;PMS_P1;PMS_P2;Temp;Humidity;BMP_temperature;BMP_pressure;BME280_temperature;BME280_humidity;BME280_pressure;Samples;Min_cycle;Max_cycle;Signal;HPM_P1;HPM_P2
2021/03/19 00:00:01;;;;;;;6.78;2.67;;;;;;;;;;5114308;28;20113;-81
2021/03/19 00:02:28;;;;;;;5.03;3.25;;;;;;;;;;5097728;28;20341;-81
2021/03/19 00:04:58;;;;;;;4.07;2.63;;;;;;;;;;5100153;28;20052;-82
2021/03/19 00:07:24;;;;;;;3.95;2.60;;;;;;;;;;5100200;28;20052;-81
2021/03/19 00:09:51;;;;;;;5.82;3.55;;;;;;;;;;5099540;28;20063;-81
2021/03/19 00:12:17;;;;;;;4.80;2.50;;;;;;;;;;5099488;28;20151;-81
2021/03/19 00:14:43;;;;;;;4.53;2.60;;;;;;;;;;5098575;28;20052;-81
2021/03/19 00:17:09;;;;;;;7.28;2.60;;;;;;;;;;5100694;28;20447;-80
2021/03/19 00:19:36;;;;;;;4.68;2.70;;;;;;;;;;5099315;28;20055;-80
2021/03/19 00:22:08;;;;;;;5.65;2.70;;;;;;;;;;5098423;28;20064;-81
2021/03/19 00:24:36;;;;;;;8.68;3.33;;;;;;;;;;5098403;28;20320;-81
2021/03/19 00:27:02;;;;;;;5.30;2.42;;;;;;;;;;5096212;28;20070;-81
2021/03/19 00:29:28;;;;;;;7.38;2.63;;;;;;;;;;5097434;28;20064;-81
2021/03/19 00:31:54;;;;;;;8.35;3.05;;;;;;;;;;5097215;28;20052;-81
2021/03/19 00:34:20;;;;;;;6.07;2.75;;;;;;;;;;5096744;28;20110;-81
2021/03/19 00:36:49;;;;;;;5.40;2.65;;;;;;;;;;5097984;28;20443;-81
2021/03/19 00:39:15;;;;;;;4.60;2.75;;;;;;;;;;5099400;28;20131;-80
2021/03/19 00:41:42;;;;;;;2.95;2.50;;;;;;;;;;5097974;28;20040;-81
2021/03/19 00:44:08;;;;;;;5.18;2.47;;;;;;;;;;5098089;28;20288;-80
2021/03/19 00:46:36;;;;;;;5.15;2.50;;;;;;;;;;5101962;28;20048;-81
2021/03/19 00:49:02;;;;;;;3.25;2.33;;;;;;;;;;5104069;28;20304;-80
2021/03/19 00:51:31;;;;;;;5.32;2.35;;;;;;;;;;5102804;28;20218;-80
2021/03/19 00:53:57;;;;;;;3.80;2.70;;;;;;;;;;5099297;28;20289;-81
2021/03/19 00:56:25;;;;;;;3.58;2.53;;;;;;;;;;5098833;28;20047;-80
2021/03/19 00:58:51;;;;;;;3.13;1.95;;;;;;;;;;5099030;28;20044;-80
2021/03/19 01:01:17;;;;;;;3.40;2.10;;;;;;;;;;5098024;28;20076;-80
2021/03/19 01:03:43;;;;;;;4.88;2.30;;;;;;;;;;5097651;28;20368;-80
2021/03/19 01:06:14;;;;;;;3.88;1.90;;;;;;;;;;5098102;28;20117;-80
2021/03/19 01:08:40;;;;;;;4.55;2.63;;;;;;;;;;5097999;28;20393;-80
2021/03/19 01:11:09;;;;;;;3.67;2.15;;;;;;;;;;5097971;28;20151;-80
2021/03/19 01:13:35;;;;;;;4.20;2.40;;;;;;;;;;5097291;28;20098;-80
2021/03/19 01:16:02;;;;;;;3.97;2.15;;;;;;;;;;5098294;28;20052;-81
2021/03/19 01:18:32;;;;;;;4.50;2.67;;;;;;;;;;5098202;28;20056;-81
2021/03/19 01:21:12;;;;;;;5.82;2.45;;;;;;;;;;5097897;28;20052;-81
2021/03/19 01:23:39;;;;;;;4.70;2.20;;;;;;;;;;5097939;28;20048;-80
2021/03/19 01:26:08;;;;;;;3.13;2.08;;;;;;;;;;5096840;28;20052;-80
2021/03/19 01:28:34;;;;;;;3.20;2.28;;;;;;;;;;5098184;28;20289;-79
2021/03/19 01:31:02;;;;;;;4.78;2.13;;;;;;;;;;5095589;28;20048;-80
2021/03/19 01:33:32;;;;;;;2.75;2.30;;;;;;;;;;5096466;28;20420;-80
2021/03/19 01:36:04;;;;;;;7.90;2.67;;;;;;;;;;5097949;28;20048;-80
2021/03/19 01:38:33;;;;;;;6.30;2.45;;;;;;;;;;5096846;28;20070;-80
2021/03/19 01:40:59;;;;;;;6.10;2.28;;;;;;;;;;5099425;28;20136;-84
2021/03/19 01:43:25;;;;;;;3.85;2.10;;;;;;;;;;5099677;28;20271;-83
2021/03/19 01:46:11;;;;;;;3.65;2.10;;;;;;;;;;5099179;28;20105;-83
2021/03/19 01:49:03;;;;;;;5.00;2.03;;;;;;;;;;5099383;28;20060;-83
2021/03/19 01:51:51;;;;;;;6.97;2.35;;;;;;;;;;5100626;28;20048;-83
2021/03/19 01:54:39;;;;;;;5.25;2.22;;;;;;;;;;5101365;28;20067;-83
2021/03/19 01:57:23;;;;;;;3.10;2.22;;;;;;;;;;5101583;28;20056;-83
2021/03/19 02:00:08;;;;;;;2.65;1.90;;;;;;;;;;5100685;28;20097;-83
2021/03/19 02:02:53;;;;;;;2.58;1.98;;;;;;;;;;5112223;28;20068;-83
2021/03/19 02:05:38;;;;;;;4.03;2.50;;;;;;;;;;5113977;28;20048;-83
2021/03/19 02:08:30;;;;;;;6.53;2.20;;;;;;;;;;5111389;28;20136;-83
2021/03/19 02:11:14;;;;;;;3.58;2.05;;;;;;;;;;5109747;28;20048;-83
2021/03/19 02:14:01;;;;;;;3.83;2.05;;;;;;;;;;5104816;28;20637;-83
2021/03/19 02:16:46;;;;;;;3.60;2.13;;;;;;;;;;5112747;28;20060;-83
2021/03/19 02:19:33;;;;;;;3.05;2.30;;;;;;;;;;5107707;28;20055;-83
2021/03/19 02:22:18;;;;;;;3.30;2.10;;;;;;;;;;5101431;28;20052;-83
2021/03/19 02:25:06;;;;;;;2.67;1.88;;;;;;;;;;5101790;28;20056;-83
2021/03/19 02:27:51;;;;;;;3.22;1.73;;;;;;;;;;5102428;28;20055;-83
2021/03/19 02:30:36;;;;;;;3.33;2.00;;;;;;;;;;5100503;28;20056;-83
2021/03/19 02:33:02;;;;;;;4.05;2.10;;;;;;;;;;5101245;28;20052;-84
2021/03/19 02:35:30;;;;;;;2.65;2.08;;;;;;;;;;5100585;28;20066;-83
2021/03/19 02:38:03;;;;;;;6.90;2.20;;;;;;;;;;5101445;28;20076;-84
2021/03/19 02:40:29;;;;;;;6.75;2.15;;;;;;;;;;5101827;28;20048;-83
2021/03/19 02:42:55;;;;;;;3.72;1.90;;;;;;;;;;5107113;28;20087;-83
2021/03/19 02:45:22;;;;;;;5.13;1.83;;;;;;;;;;5109397;28;20077;-83
2021/03/19 02:47:48;;;;;;;11.05;2.50;;;;;;;;;;5109821;28;20047;-83
2021/03/19 02:50:18;;;;;;;3.55;2.30;;;;;;;;;;5110961;28;20111;-83
2021/03/19 02:52:44;;;;;;;3.22;2.15;;;;;;;;;;5113600;28;20052;-82
2021/03/19 02:55:12;;;;;;;2.72;2.10;;;;;;;;;;5113679;28;20059;-83
2021/03/19 02:57:41;;;;;;;2.08;1.70;;;;;;;;;;5111686;28;20054;-83
2021/03/19 03:00:08;;;;;;;3.75;2.25;;;;;;;;;;5111828;28;20070;-83
2021/03/19 03:02:38;;;;;;;4.22;2.70;;;;;;;;;;5106528;28;20161;-83
2021/03/19 03:05:07;;;;;;;3.20;2.22;;;;;;;;;;5100699;28;20125;-83
2021/03/19 03:07:33;;;;;;;3.88;2.22;;;;;;;;;;5102535;28;20424;-83
2021/03/19 03:10:10;;;;;;;6.22;2.67;;;;;;;;;;5101602;28;20094;-83
2021/03/19 03:12:36;;;;;;;5.50;2.17;;;;;;;;;;5099036;28;20070;-83
2021/03/19 03:15:05;;;;;;;5.53;2.67;;;;;;;;;;5101805;28;20052;-84
2021/03/19 03:17:34;;;;;;;4.10;2.17;;;;;;;;;;5109054;28;20264;-83
2021/03/19 03:20:04;;;;;;;6.45;2.88;;;;;;;;;;5109378;28;20083;-83
2021/03/19 03:22:39;;;;;;;3.83;2.30;;;;;;;;;;5109820;28;20043;-83
2021/03/19 03:25:08;;;;;;;8.48;2.80;;;;;;;;;;5104324;28;20106;-83
2021/03/19 03:27:39;;;;;;;4.03;2.83;;;;;;;;;;5103491;28;20059;-83
2021/03/19 03:30:08;;;;;;;4.13;2.80;;;;;;;;;;5103265;28;20620;-83
2021/03/19 03:32:34;;;;;;;4.70;2.70;;;;;;;;;;5099674;28;20059;-83
2021/03/19 03:35:07;;;;;;;5.72;2.35;;;;;;;;;;5099245;28;20081;-83
2021/03/19 03:37:39;;;;;;;4.75;2.53;;;;;;;;;;5101705;28;20054;-83
2021/03/19 03:40:09;;;;;;;3.70;2.42;;;;;;;;;;5103817;28;20625;-84
2021/03/19 03:42:37;;;;;;;3.53;2.45;;;;;;;;;;5100736;28;20055;-83
2021/03/19 03:45:04;;;;;;;4.13;2.55;;;;;;;;;;5102008;28;20047;-83
2021/03/19 03:47:33;;;;;;;4.40;2.42;;;;;;;;;;5100395;28;20048;-83
2021/03/19 03:50:00;;;;;;;4.88;2.05;;;;;;;;;;5102103;28;20304;-83
2021/03/19 03:52:32;;;;;;;3.97;2.17;;;;;;;;;;5104133;28;20070;-83
2021/03/19 03:54:58;;;;;;;4.40;2.40;;;;;;;;;;5103691;28;20048;-83
2021/03/19 03:57:27;;;;;;;6.53;2.50;;;;;;;;;;5105057;28;20055;-83
2021/03/19 03:59:54;;;;;;;3.88;2.65;;;;;;;;;;5104617;28;20139;-83
2021/03/19 04:02:21;;;;;;;7.07;3.05;;;;;;;;;;5104109;28;20059;-84
2021/03/19 04:04:48;;;;;;;5.68;2.90;;;;;;;;;;5104844;28;20399;-83
2021/03/19 04:07:15;;;;;;;4.78;2.78;;;;;;;;;;5101514;28;20074;-83
2021/03/19 04:09:44;;;;;;;4.47;2.85;;;;;;;;;;5103636;28;20248;-83
2021/03/19 04:12:11;;;;;;;4.00;2.70;;;;;;;;;;5103067;28;20431;-84
2021/03/19 04:14:39;;;;;;;4.50;2.83;;;;;;;;;;5102453;28;20108;-83
2021/03/19 04:17:23;;;;;;;5.30;2.78;;;;;;;;;;5102286;28;20079;-83
2021/03/19 04:19:49;;;;;;;4.97;3.05;;;;;;;;;;5102142;28;20055;-84
2021/03/19 04:22:18;;;;;;;5.03;2.85;;;;;;;;;;5104134;28;20044;-83
2021/03/19 04:24:50;;;;;;;7.53;3.13;;;;;;;;;;5100027;28;20131;-83
2021/03/19 04:27:21;;;;;;;3.95;3.00;;;;;;;;;;5099174;28;20048;-83
2021/03/19 04:29:48;;;;;;;7.50;3.10;;;;;;;;;;5099549;28;20052;-83
2021/03/19 04:32:16;;;;;;;7.20;2.92;;;;;;;;;;5098969;28;20059;-83
2021/03/19 04:34:42;;;;;;;5.03;2.97;;;;;;;;;;5099168;28;20052;-84
2021/03/19 04:37:09;;;;;;;4.35;3.00;;;;;;;;;;5096750;28;20417;-83
2021/03/19 04:39:42;;;;;;;8.32;3.13;;;;;;;;;;5097615;28;20067;-84
2021/03/19 04:42:11;;;;;;;5.05;3.10;;;;;;;;;;5099016;28;20621;-83
2021/03/19 04:44:58;;;;;;;6.00;3.28;;;;;;;;;;5099807;28;20052;-83
2021/03/19 04:47:24;;;;;;;8.93;3.25;;;;;;;;;;5097762;28;20052;-83
2021/03/19 04:49:50;;;;;;;5.55;3.08;;;;;;;;;;5096383;28;20044;-83
2021/03/19 04:52:20;;;;;;;6.60;3.10;;;;;;;;;;5097395;28;20048;-83
2021/03/19 04:54:52;;;;;;;6.35;2.90;;;;;;;;;;5098121;28;20094;-83
2021/03/19 04:57:20;;;;;;;5.30;3.33;;;;;;;;;;5096336;28;20135;-83
2021/03/19 04:59:46;;;;;;;5.93;3.25;;;;;;;;;;5097888;28;20063;-83
2021/03/19 05:02:15;;;;;;;8.07;3.30;;;;;;;;;;5097048;28;20050;-83
2021/03/19 05:04:48;;;;;;;7.43;3.75;;;;;;;;;;5099966;28;20105;-83
2021/03/19 05:07:14;;;;;;;5.10;2.88;;;;;;;;;;5100409;28;20058;-83
2021/03/19 05:09:43;;;;;;;7.05;3.85;;;;;;;;;;5097990;28;20071;-83
2021/03/19 05:12:13;;;;;;;5.68;3.55;;;;;;;;;;5096615;28;20051;-83
2021/03/19 05:14:39;;;;;;;5.55;3.72;;;;;;;;;;5096987;28;20048;-83
2021/03/19 05:17:05;;;;;;;7.57;3.65;;;;;;;;;;5098031;28;20048;-83
2021/03/19 05:19:31;;;;;;;9.95;4.40;;;;;;;;;;5096661;28;20052;-84
2021/03/19 05:21:59;;;;;;;12.02;4.28;;;;;;;;;;5095923;28;20196;-84
2021/03/19 05:24:25;;;;;;;6.65;4.03;;;;;;;;;;5097470;28;20044;-84
2021/03/19 05:26:56;;;;;;;6.45;4.03;;;;;;;;;;5097533;28;20158;-82
2021/03/19 05:29:25;;;;;;;10.45;4.30;;;;;;;;;;5097283;28;20210;-84
2021/03/19 05:31:59;;;;;;;6.55;3.97;;;;;;;;;;5098751;28;20215;-83
2021/03/19 05:34:25;;;;;;;7.25;4.18;;;;;;;;;;5096865;28;20048;-85
2021/03/19 05:36:51;;;;;;;7.18;4.45;;;;;;;;;;5096714;28;20097;-84
2021/03/19 05:39:18;;;;;;;6.35;4.07;;;;;;;;;;5108836;28;20094;-84
2021/03/19 05:41:47;;;;;;;6.03;4.00;;;;;;;;;;5112566;28;20036;-84
2021/03/19 05:44:17;;;;;;;6.90;4.60;;;;;;;;;;5109711;28;20047;-83
2021/03/19 05:47:04;;;;;;;7.90;4.25;;;;;;;;;;5112473;28;20038;-81
2021/03/19 05:49:31;;;;;;;6.40;3.85;;;;;;;;;;5100505;28;20054;-84
2021/03/19 05:51:59;;;;;;;8.15;5.03;;;;;;;;;;5105939;28;20112;-83
2021/03/19 05:54:38;;;;;;;9.45;4.80;;;;;;;;;;5109249;28;20062;-84
2021/03/19 05:57:04;;;;;;;6.32;3.65;;;;;;;;;;5099246;28;20613;-83
2021/03/19 05:59:47;;;;;;;8.02;4.20;;;;;;;;;;5097551;28;20082;-84
2021/03/19 06:02:23;;;;;;;12.30;3.80;;;;;;;;;;5098636;28;20054;-84
2021/03/19 06:05:13;;;;;;;10.18;3.85;;;;;;;;;;5096401;28;20101;-84
2021/03/19 06:07:49;;;;;;;8.18;2.78;;;;;;;;;;5095595;28;20040;-84
2021/03/19 06:10:15;;;;;;;7.13;3.42;;;;;;;;;;5095712;28;20070;-84
2021/03/19 06:12:49;;;;;;;11.23;3.53;;;;;;;;;;5112445;28;20058;-84
2021/03/19 06:15:23;;;;;;;8.88;3.22;;;;;;;;;;5114384;28;20122;-84
2021/03/19 06:17:56;;;;;;;8.30;3.40;;;;;;;;;;5095718;28;20059;-84
2021/03/19 06:20:24;;;;;;;9.23;2.70;;;;;;;;;;5099982;28;20040;-83
2021/03/19 06:22:53;;;;;;;5.15;2.95;;;;;;;;;;5112634;28;20057;-83
2021/03/19 06:25:55;;;;;;;5.00;2.63;;;;;;;;;;5114646;28;20067;-84
2021/03/19 06:28:39;;;;;;;5.07;3.03;;;;;;;;;;5094461;28;20135;-83
2021/03/19 06:31:27;;;;;;;4.82;2.63;;;;;;;;;;5090663;28;20556;-84
2021/03/19 06:34:03;;;;;;;5.68;2.83;;;;;;;;;;5093112;28;20299;-85
2021/03/19 06:36:32;;;;;;;4.13;2.75;;;;;;;;;;5104176;28;20052;-83
2021/03/19 06:39:19;;;;;;;6.35;2.95;;;;;;;;;;5095717;28;20052;-83
2021/03/19 06:42:00;;;;;;;6.20;3.15;;;;;;;;;;5093561;28;20048;-85
2021/03/19 06:44:35;;;;;;;6.05;2.85;;;;;;;;;;5092459;28;20056;-84
2021/03/19 06:47:04;;;;;;;4.70;2.67;;;;;;;;;;5097507;28;20244;-83
2021/03/19 06:49:50;;;;;;;5.72;2.63;;;;;;;;;;5112784;28;20131;-83
2021/03/19 06:52:25;;;;;;;4.85;2.55;;;;;;;;;;5114049;28;20365;-84
2021/03/19 06:55:01;;;;;;;4.10;2.85;;;;;;;;;;5115343;28;20311;-84
2021/03/19 06:57:42;;;;;;;6.13;3.20;;;;;;;;;;5122975;28;20055;-83
2021/03/19 07:00:09;;;;;;;5.88;3.08;;;;;;;;;;5124282;28;20203;-84
2021/03/19 07:02:54;;;;;;;4.95;2.95;;;;;;;;;;5118744;28;20384;-84
2021/03/19 07:05:33;;;;;;;97.25;10.15;;;;;;;;;;5112912;28;20107;-84
2021/03/19 07:08:27;;;;;;;124.10;10.43;;;;;;;;;;5114352;28;20512;-84
2021/03/19 07:11:02;;;;;;;85.90;11.02;;;;;;;;;;5113292;28;20056;-84
2021/03/19 07:13:35;;;;;;;19.23;3.47;;;;;;;;;;5125171;28;20057;-84
2021/03/19 07:16:20;;;;;;;7.03;2.60;;;;;;;;;;5105281;28;20079;-84
2021/03/19 07:18:58;;;;;;;12.95;2.63;;;;;;;;;;5105009;28;20044;-84
2021/03/19 07:21:42;;;;;;;18.20;3.38;;;;;;;;;;5093371;28;20124;-84
2021/03/19 07:24:43;;;;;;;109.45;9.95;;;;;;;;;;5093203;28;20052;-84
2021/03/19 07:27:29;;;;;;;25.10;3.85;;;;;;;;;;5089214;28;20055;-84
2021/03/19 07:30:06;;;;;;;60.20;10.20;;;;;;;;;;5105800;28;20078;-84
2021/03/19 07:32:47;;;;;;;12.80;3.37;;;;;;;;;;5098932;28;20048;-84
2021/03/19 07:35:15;;;;;;;5.97;2.50;;;;;;;;;;5089521;28;20501;-85
2021/03/19 07:38:04;;;;;;;23.75;3.38;;;;;;;;;;5088520;28;20116;-85
2021/03/19 07:40:52;;;;;;;5.68;3.42;;;;;;;;;;5086566;28;20119;-84
2021/03/19 07:43:30;;;;;;;13.38;3.58;;;;;;;;;;5089463;28;20047;-84
2021/03/19 07:45:57;;;;;;;;;;;;;;;;;;5090096;28;20055;-84
2021/03/19 07:48:42;;;;;;;9.80;3.08;;;;;;;;;;5093206;28;19972;-84
2021/03/19 07:51:27;;;;;;;13.57;2.72;;;;;;;;;;5089595;28;20051;-84
2021/03/19 07:53:59;;;;;;;8.73;2.55;;;;;;;;;;5089787;28;20059;-84
2021/03/19 07:56:34;;;;;;;180.77;12.70;;;;;;;;;;5089209;28;20044;-84
2021/03/19 07:59:24;;;;;;;8.75;2.55;;;;;;;;;;5091753;28;20158;-85
2021/03/19 08:02:14;;;;;;;6.10;2.70;;;;;;;;;;5070196;28;20048;-85
2021/03/19 08:05:04;;;;;;;6.60;2.58;;;;;;;;;;5094525;28;20048;-85
2021/03/19 08:07:38;;;;;;;5.97;2.75;;;;;;;;;;5096999;28;20441;-84
2021/03/19 08:10:10;;;;;;;5.18;2.75;;;;;;;;;;5095949;28;20129;-85
2021/03/19 08:12:37;;;;;;;5.07;2.63;;;;;;;;;;5099672;28;20047;-85
2021/03/19 08:15:15;;;;;;;6.57;2.67;;;;;;;;;;5116126;28;20411;-85
2021/03/19 08:17:45;;;;;;;5.97;2.13;;;;;;;;;;5117885;28;20134;-86
2021/03/19 08:20:16;;;;;;;6.72;2.75;;;;;;;;;;5118886;28;20123;-84
2021/03/19 08:22:59;;;;;;;6.85;2.42;;;;;;;;;;5117298;28;20139;-85
2021/03/19 08:25:35;;;;;;;8.43;3.00;;;;;;;;;;5117084;27;20059;-84
2021/03/19 08:28:20;;;;;;;4.78;2.30;;;;;;;;;;5116954;28;20044;-84
2021/03/19 08:30:59;;;;;;;8.03;3.60;;;;;;;;;;5115094;28;20105;-85
2021/03/19 08:36:42;;;;;;;6.10;2.53;;;;;;;;;;5139654;27;20072;-85
2021/03/19 08:39:11;;;;;;;14.45;3.03;;;;;;;;;;5149386;27;20039;-85
2021/03/19 08:41:46;;;;;;;5.38;2.33;;;;;;;;;;5141847;27;20152;-84
2021/03/19 08:44:14;;;;;;;8.87;2.57;;;;;;;;;;5133866;27;20385;-85
2021/03/19 08:46:43;;;;;;;3.42;2.10;;;;;;;;;;5122562;27;20102;-85
2021/03/19 08:49:14;;;;;;;6.63;2.50;;;;;;;;;;5092918;28;20317;-84
2021/03/19 08:51:55;;;;;;;4.47;2.28;;;;;;;;;;5125525;27;20208;-84
2021/03/19 08:54:26;;;;;;;6.03;2.35;;;;;;;;;;5091589;28;20048;-84
2021/03/19 08:57:02;;;;;;;5.72;2.10;;;;;;;;;;5103187;28;20515;-85
2021/03/19 08:59:32;;;;;;;8.30;2.75;;;;;;;;;;5112455;28;20240;-84
2021/03/19 09:02:02;;;;;;;10.80;5.20;;;;;;;;;;5113493;28;20116;-84
2021/03/19 09:04:47;;;;;;;7.80;3.35;;;;;;;;;;5112384;27;20118;-85
2021/03/19 09:07:39;;;;;;;6.93;3.42;;;;;;;;;;5110904;28;20613;-85
2021/03/19 09:10:33;;;;;;;6.35;3.13;;;;;;;;;;5114204;28;20066;-84
2021/03/19 09:13:02;;;;;;;8.88;3.53;;;;;;;;;;5113292;27;20418;-85
2021/03/19 09:15:51;;;;;;;6.95;2.88;;;;;;;;;;5126427;27;20248;-85
2021/03/19 09:18:37;;;;;;;7.10;2.72;;;;;;;;;;5122693;28;20071;-85
2021/03/19 09:21:09;;;;;;;9.23;3.28;;;;;;;;;;5116786;28;20141;-84
2021/03/19 09:23:57;;;;;;;3.83;2.67;;;;;;;;;;5097859;28;20098;-86
2021/03/19 09:26:36;;;;;;;5.47;3.30;;;;;;;;;;5109310;28;20289;-85
2021/03/19 09:29:22;;;;;;;8.27;3.00;;;;;;;;;;5126379;28;20506;-85
2021/03/19 09:31:50;;;;;;;5.60;3.03;;;;;;;;;;5102775;28;20127;-85
2021/03/19 09:34:21;;;;;;;9.35;3.97;;;;;;;;;;5111720;28;20171;-84
2021/03/19 09:37:08;;;;;;;4.75;3.33;;;;;;;;;;5110679;28;20513;-84
2021/03/19 09:39:47;;;;;;;6.45;3.15;;;;;;;;;;5113636;28;20039;-85
2021/03/19 09:42:33;;;;;;;14.40;4.15;;;;;;;;;;5111116;28;20050;-85
2021/03/19 09:45:03;;;;;;;9.38;3.72;;;;;;;;;;5122335;27;20108;-85
2021/03/19 09:47:39;;;;;;;9.75;5.03;;;;;;;;;;5129912;27;20103;-85
2021/03/19 09:50:09;;;;;;;9.45;3.88;;;;;;;;;;5132572;27;20173;-84
2021/03/19 09:52:36;;;;;;;8.57;3.40;;;;;;;;;;5130480;27;20043;-84
2021/03/19 09:55:22;;;;;;;9.65;3.72;;;;;;;;;;5131830;27;20258;-84
2021/03/19 09:57:50;;;;;;;6.93;3.72;;;;;;;;;;5164930;27;20512;-84
2021/03/19 10:00:34;;;;;;;7.38;4.22;;;;;;;;;;5110447;27;20051;-85
2021/03/19 10:03:11;;;;;;;11.60;4.28;;;;;;;;;;5110147;28;20056;-85
2021/03/19 10:05:39;;;;;;;6.13;3.17;;;;;;;;;;5105039;28;20048;-85
2021/03/19 10:08:11;;;;;;;9.23;4.00;;;;;;;;;;5088660;28;20047;-84
2021/03/19 10:10:39;;;;;;;7.40;3.53;;;;;;;;;;5090816;28;20383;-84
2021/03/19 10:13:10;;;;;;;10.13;3.75;;;;;;;;;;5090942;28;20343;-84
2021/03/19 10:15:39;;;;;;;6.45;3.40;;;;;;;;;;5091342;28;20071;-85
2021/03/19 10:18:06;;;;;;;4.85;3.33;;;;;;;;;;5088874;28;20301;-85
2021/03/19 10:20:33;;;;;;;5.45;3.50;;;;;;;;;;5086926;28;20050;-85
2021/03/19 10:23:12;;;;;;;4.93;3.50;;;;;;;;;;5086248;28;20367;-85
2021/03/19 10:25:42;;;;;;;7.78;3.60;;;;;;;;;;5088411;28;20071;-85
2021/03/19 10:28:26;;;;;;;7.57;4.15;;;;;;;;;;5088389;28;20193;-83
2021/03/19 10:30:58;;;;;;;8.13;3.28;;;;;;;;;;5088779;28;20052;-84
2021/03/19 10:33:35;;;;;;;6.88;3.28;;;;;;;;;;5108205;28;20047;-84
2021/03/19 10:36:10;;;;;;;5.32;3.17;;;;;;;;;;5103544;28;20269;-84
2021/03/19 10:38:45;;;;;;;5.22;2.63;;;;;;;;;;5088647;28;20044;-83
2021/03/19 10:41:22;;;;;;;6.45;3.20;;;;;;;;;;5089414;28;20299;-84
2021/03/19 10:44:00;;;;;;;6.70;3.80;;;;;;;;;;5109309;27;20550;-84
2021/03/19 10:46:33;;;;;;;6.22;3.45;;;;;;;;;;5098094;28;20105;-86
2021/03/19 10:49:12;;;;;;;7.85;3.60;;;;;;;;;;5085835;28;20048;-83
2021/03/19 10:51:38;;;;;;;8.68;4.10;;;;;;;;;;5090104;28;20269;-86
2021/03/19 10:54:33;;;;;;;9.00;4.10;;;;;;;;;;5094369;28;20070;-85
2021/03/19 10:57:04;;;;;;;5.70;3.25;;;;;;;;;;5031631;28;20083;-84
2021/03/19 10:59:32;;;;;;;11.35;4.03;;;;;;;;;;5124844;27;20362;-85
2021/03/19 11:02:14;;;;;;;7.07;3.72;;;;;;;;;;5109119;28;20051;-84
2021/03/19 11:04:41;;;;;;;5.57;3.47;;;;;;;;;;5090849;28;20063;-84
2021/03/19 11:07:22;;;;;;;6.82;3.72;;;;;;;;;;5091025;28;20061;-85
2021/03/19 11:09:59;;;;;;;6.15;3.30;;;;;;;;;;5089072;28;20135;-84
2021/03/19 11:12:39;;;;;;;5.90;3.20;;;;;;;;;;5087643;28;20056;-84
2021/03/19 11:15:15;;;;;;;6.43;3.83;;;;;;;;;;5106326;28;20051;-84
2021/03/19 11:17:42;;;;;;;8.75;3.72;;;;;;;;;;5104413;28;20044;-85
2021/03/19 11:20:11;;;;;;;6.10;3.20;;;;;;;;;;5104998;28;20058;-85
2021/03/19 11:22:41;;;;;;;6.75;3.63;;;;;;;;;;5099808;28;20415;-84
2021/03/19 11:25:21;;;;;;;7.20;3.97;;;;;;;;;;5089948;28;20044;-84
2021/03/19 11:27:48;;;;;;;9.02;4.53;;;;;;;;;;5097357;28;20036;-84
2021/03/19 11:30:17;;;;;;;8.43;3.97;;;;;;;;;;5101916;28;20056;-85
2021/03/19 11:32:43;;;;;;;7.57;4.07;;;;;;;;;;5100678;28;20074;-85
2021/03/19 11:35:17;;;;;;;13.02;4.43;;;;;;;;;;5092880;28;20055;-85
2021/03/19 11:37:46;;;;;;;5.80;3.70;;;;;;;;;;5094510;28;20221;-83
2021/03/19 11:40:35;;;;;;;6.65;3.20;;;;;;;;;;5096527;28;20044;-84
2021/03/19 11:43:08;;;;;;;5.88;3.38;;;;;;;;;;5084782;28;20063;-85
2021/03/19 11:45:39;;;;;;;6.63;3.63;;;;;;;;;;5107238;28;20051;-85
2021/03/19 11:48:20;;;;;;;6.75;3.72;;;;;;;;;;5114253;28;20202;-83
2021/03/19 11:50:52;;;;;;;4.75;3.30;;;;;;;;;;5113880;27;20065;-85
2021/03/19 11:53:22;;;;;;;7.10;3.40;;;;;;;;;;5116462;28;20480;-85
2021/03/19 11:55:51;;;;;;;7.65;3.58;;;;;;;;;;5110064;28;20056;-85
2021/03/19 11:58:18;;;;;;;5.82;3.28;;;;;;;;;;5111693;27;20137;-85
2021/03/19 12:00:47;;;;;;;6.38;3.38;;;;;;;;;;5111473;28;20383;-86
2021/03/19 12:03:18;;;;;;;5.30;3.00;;;;;;;;;;5106814;28;20039;-86
2021/03/19 12:05:47;;;;;;;5.93;2.75;;;;;;;;;;5089936;28;20052;-85
2021/03/19 12:08:19;;;;;;;4.85;2.78;;;;;;;;;;5092154;28;20054;-85
2021/03/19 12:10:47;;;;;;;7.07;2.80;;;;;;;;;;5088561;28;20048;-85
2021/03/19 12:13:17;;;;;;;6.03;3.40;;;;;;;;;;5100926;28;20043;-85
2021/03/19 12:15:45;;;;;;;6.47;2.88;;;;;;;;;;5108471;28;20265;-85
2021/03/19 12:18:22;;;;;;;4.13;2.72;;;;;;;;;;5101614;27;20204;-84
2021/03/19 12:20:49;;;;;;;4.32;2.38;;;;;;;;;;5093282;28;20249;-85
2021/03/19 12:23:22;;;;;;;4.43;2.63;;;;;;;;;;5114870;28;20052;-85
2021/03/19 12:25:52;;;;;;;5.60;2.72;;;;;;;;;;5130847;27;20273;-84
2021/03/19 12:28:19;;;;;;;9.27;2.72;;;;;;;;;;5101370;28;20182;-86
2021/03/19 12:30:49;;;;;;;5.22;2.63;;;;;;;;;;5108238;28;20081;-85
2021/03/19 12:33:18;;;;;;;4.18;2.35;;;;;;;;;;5098493;28;20224;-84
2021/03/19 12:35:45;;;;;;;5.80;2.97;;;;;;;;;;5112740;27;20051;-84
2021/03/19 12:38:12;;;;;;;6.18;2.88;;;;;;;;;;5109192;28;20068;-84
2021/03/19 12:40:39;;;;;;;2.83;2.03;;;;;;;;;;5110933;28;20089;-84
2021/03/19 12:43:06;;;;;;;3.70;2.55;;;;;;;;;;5111476;28;20147;-83
2021/03/19 12:45:34;;;;;;;2.65;1.95;;;;;;;;;;5097239;28;20051;-85
2021/03/19 12:48:09;;;;;;;6.65;2.42;;;;;;;;;;5097016;28;20059;-84
2021/03/19 12:50:38;;;;;;;5.35;2.38;;;;;;;;;;5102161;28;20108;-84
2021/03/19 12:53:05;;;;;;;6.38;2.70;;;;;;;;;;5108092;28;20139;-83
2021/03/19 12:55:34;;;;;;;5.00;2.55;;;;;;;;;;5113080;27;20605;-85
2021/03/19 12:58:01;;;;;;;6.88;2.63;;;;;;;;;;5110463;28;20255;-84
2021/03/19 13:00:30;;;;;;;5.90;3.13;;;;;;;;;;5104543;28;20155;-83
2021/03/19 13:03:00;;;;;;;8.55;3.53;;;;;;;;;;5114644;28;20166;-83
2021/03/19 13:05:29;;;;;;;6.68;3.75;;;;;;;;;;5115328;28;20261;-84
2021/03/19 13:08:00;;;;;;;8.10;3.90;;;;;;;;;;5119240;28;20047;-85
2021/03/19 13:10:41;;;;;;;6.33;4.23;;;;;;;;;;5114155;27;20134;-85
2021/03/19 13:13:08;;;;;;;6.78;4.47;;;;;;;;;;5100469;28;20055;-84
2021/03/19 13:15:36;;;;;;;8.25;5.00;;;;;;;;;;5098354;28;20047;-84
2021/03/19 13:18:03;;;;;;;9.40;4.45;;;;;;;;;;5110007;28;20051;-84
2021/03/19 13:20:31;;;;;;;6.43;3.80;;;;;;;;;;5110913;28;20092;-85
2021/03/19 13:22:59;;;;;;;5.53;3.63;;;;;;;;;;5112212;28;20048;-84
2021/03/19 13:25:41;;;;;;;6.80;3.83;;;;;;;;;;5112430;28;20255;-83
2021/03/19 13:28:16;;;;;;;8.52;3.90;;;;;;;;;;5112243;28;20115;-84
2021/03/19 13:30:53;;;;;;;5.63;3.67;;;;;;;;;;5108656;28;20259;-84
2021/03/19 13:33:20;;;;;;;7.28;2.88;;;;;;;;;;5107975;28;20071;-84
2021/03/19 13:35:50;;;;;;;9.35;4.53;;;;;;;;;;5102123;28;20039;-83
2021/03/19 13:38:19;;;;;;;4.90;3.25;;;;;;;;;;5106017;28;20171;-83
2021/03/19 13:40:50;;;;;;;8.15;4.57;;;;;;;;;;5087887;28;20101;-83
2021/03/19 13:43:18;;;;;;;4.43;2.90;;;;;;;;;;5108580;27;20063;-84
2021/03/19 13:45:48;;;;;;;6.65;3.70;;;;;;;;;;5108473;28;20415;-84
2021/03/19 13:48:17;;;;;;;6.20;3.95;;;;;;;;;;5110032;28;20370;-83
2021/03/19 13:50:44;;;;;;;6.13;3.45;;;;;;;;;;5093000;28;20073;-83
2021/03/19 13:53:16;;;;;;;6.28;3.50;;;;;;;;;;5089451;28;20072;-85
2021/03/19 13:55:42;;;;;;;6.90;2.83;;;;;;;;;;5088182;28;20076;-84
2021/03/19 13:58:16;;;;;;;6.25;3.13;;;;;;;;;;5092767;28;20367;-83
2021/03/19 14:00:55;;;;;;;;;;;;;;;;;;5111319;28;20048;-84
2021/03/19 14:03:22;;;;;;;8.52;3.22;;;;;;;;;;5106307;28;19975;-85
2021/03/19 14:05:54;;;;;;;6.55;3.28;;;;;;;;;;5100602;28;20063;-84
2021/03/19 14:08:29;;;;;;;6.60;3.47;;;;;;;;;;5104444;28;20154;-85
2021/03/19 14:10:57;;;;;;;4.95;3.10;;;;;;;;;;5061037;28;20043;-85
2021/03/19 14:13:34;;;;;;;;;;;;;;;;;;;;;
2021/03/19 14:16:04;;;;;;;5.95;3.33;;;;;;;;;;5115487;28;20111;-84
2021/03/19 14:18:30;;;;;;;8.40;3.30;;;;;;;;;;5115921;28;20028;-84
2021/03/19 14:20:56;;;;;;;8.07;4.05;;;;;;;;;;5118726;28;20048;-83
2021/03/19 14:23:24;;;;;;;7.40;3.63;;;;;;;;;;5121033;28;20046;-83
2021/03/19 14:25:54;;;;;;;6.15;3.13;;;;;;;;;;5101358;28;20127;-83
2021/03/19 14:28:22;;;;;;;5.88;3.25;;;;;;;;;;5102342;28;20047;-83
2021/03/19 14:30:56;;;;;;;5.65;3.17;;;;;;;;;;5105533;28;20110;-83
2021/03/19 14:33:26;;;;;;;6.35;3.10;;;;;;;;;;5105697;28;20196;-84
2021/03/19 14:35:58;;;;;;;7.63;2.75;;;;;;;;;;5096871;28;20287;-84
2021/03/19 14:38:24;;;;;;;7.60;3.00;;;;;;;;;;5108234;28;20050;-84
2021/03/19 14:40:57;;;;;;;6.15;3.13;;;;;;;;;;5085680;28;20237;-84
2021/03/19 14:43:27;;;;;;;6.72;2.97;;;;;;;;;;5090303;28;20044;-85
2021/03/19 14:45:54;;;;;;;7.85;3.15;;;;;;;;;;5088072;28;20040;-83
2021/03/19 14:48:34;;;;;;;5.32;2.38;;;;;;;;;;5091361;28;20069;-82
2021/03/19 14:51:01;;;;;;;4.18;2.30;;;;;;;;;;5087457;28;20070;-83
2021/03/19 14:53:27;;;;;;;3.67;2.13;;;;;;;;;;5087663;28;20439;-84
2021/03/19 14:55:53;;;;;;;4.70;2.72;;;;;;;;;;5087213;28;20059;-84
2021/03/19 14:58:21;;;;;;;4.57;2.20;;;;;;;;;;5087576;28;20109;-84
2021/03/19 15:00:51;;;;;;;7.35;2.65;;;;;;;;;;5087132;28;20048;-83
2021/03/19 15:03:20;;;;;;;4.20;2.50;;;;;;;;;;5087426;28;20074;-84
2021/03/19 15:05:46;;;;;;;3.50;2.30;;;;;;;;;;5090097;28;20062;-83
2021/03/19 15:08:17;;;;;;;2.33;1.45;;;;;;;;;;5108566;28;20127;-83
2021/03/19 15:10:46;;;;;;;3.78;1.50;;;;;;;;;;5108910;28;20116;-83
2021/03/19 15:13:13;;;;;;;3.88;1.80;;;;;;;;;;5100221;28;20050;-83
2021/03/19 15:15:39;;;;;;;3.40;2.25;;;;;;;;;;5112741;28;20051;-83
2021/03/19 15:18:07;;;;;;;3.38;2.00;;;;;;;;;;5107572;28;20035;-83